Covenas Airport


Codes: SKCV/CVE
Name: Covenas Airport
City: Covenas
Country: Colombia
Elevation: 31 ft.

Photos at Covenas Airport


   Photos courtesy of SpottingLog. You can add your own sightings and photos by signing up for a free trial today.



No photos found.

Weather at Covenas Airport


Time (UTC)DescriptionTempratureWindCloud coverageVisibilityPressureHumidity
23-May-2024 21:00Overcast Clouds29°C7 mph, NW98%10000m1010hPa73%
24-May-2024 00:00Light Rain28°C9 mph, W99%10000m1010hPa78%
24-May-2024 03:00Overcast Clouds28°C9 mph, W98%10000m1012hPa79%
24-May-2024 06:00Light Rain27°C7 mph, W99%10000m1011hPa85%
24-May-2024 09:00Light Rain27°C7 mph, SW100%10000m1011hPa86%
24-May-2024 12:00Light Rain27°C4 mph, W99%10000m1012hPa83%
24-May-2024 15:00Light Rain29°C9 mph, W96%10000m1013hPa76%
24-May-2024 18:00Light Rain28°C11 mph, W96%10000m1011hPa82%
24-May-2024 21:00Overcast Clouds28°C7 mph, W100%10000m1009hPa83%
25-May-2024 00:00Overcast Clouds27°C4 mph, NW100%10000m1011hPa82%
25-May-2024 03:00Light Rain27°C2 mph, NW100%10000m1012hPa87%
25-May-2024 06:00Moderate Rain26°C7 mph, S100%10000m1011hPa92%
25-May-2024 09:00Moderate Rain25°C4 mph, SW100%10000m1010hPa94%
25-May-2024 12:00Light Rain25°C4 mph, SW100%10000m1012hPa94%
25-May-2024 15:00Light Rain26°C4 mph, SE100%10000m1013hPa91%
25-May-2024 18:00Light Rain27°C2 mph, S100%10000m1010hPa82%
25-May-2024 21:00Overcast Clouds27°C7 mph, NW100%10000m1009hPa83%
26-May-2024 00:00Overcast Clouds27°C7 mph, NW100%10000m1011hPa84%
26-May-2024 03:00Overcast Clouds27°C7 mph, N97%10000m1011hPa84%
26-May-2024 06:00Light Rain26°C4 mph, NE96%10000m1010hPa87%
26-May-2024 09:00Light Rain26°C2 mph, NE95%10000m1010hPa89%
26-May-2024 12:00Light Rain26°C4 mph, S97%10000m1012hPa89%
26-May-2024 15:00Light Rain28°C7 mph, SE99%10000m1013hPa79%
26-May-2024 18:00Light Rain29°C11 mph, SE100%10000m1011hPa76%
26-May-2024 21:00Light Rain29°C11 mph, SE100%10000m1009hPa75%
27-May-2024 00:00Overcast Clouds27°C7 mph, SE99%10000m1011hPa83%
27-May-2024 03:00Overcast Clouds26°C4 mph, E100%10000m1012hPa87%
27-May-2024 06:00Light Rain26°C2 mph, E100%10000m1011hPa88%
27-May-2024 09:00Overcast Clouds25°C4 mph, SE100%10000m1010hPa89%
27-May-2024 12:00Overcast Clouds26°C4 mph, SE100%10000m1012hPa84%
27-May-2024 15:00Overcast Clouds29°C4 mph, E98%10000m1013hPa71%
27-May-2024 18:00Broken Clouds30°C4 mph, N57%10000m1010hPa65%
27-May-2024 21:00Light Rain29°C9 mph, N55%10000m1009hPa73%
28-May-2024 00:00Light Rain28°C7 mph, N78%10000m1010hPa77%
28-May-2024 03:00Overcast Clouds27°C4 mph, NW95%10000m1012hPa79%
28-May-2024 06:00Light Rain26°C7 mph, SW97%10000m1011hPa85%
28-May-2024 09:00Light Rain26°C7 mph, SW100%10000m1011hPa88%
28-May-2024 12:00Light Rain26°C9 mph, S100%10000m1012hPa92%
28-May-2024 15:00Overcast Clouds29°C7 mph, S85%10000m1012hPa71%
28-May-2024 18:00Broken Clouds31°C4 mph, W69%10000m1010hPa65%